Terminal Aerodrome Forecast
Issued by NWS Cleveland, OH

Home | Current Version | Previous Version | Graphics & Text | Print | Product List | Glossary On
Versions: 1 2 3 4 5 6 7 8 9 10 11 12 13 14 15 16 17 18 19
000
FTUS41 KCLE 011731
TAFMFD
TAF
KMFD 011731Z 0118/0218 27006KT P6SM BKN030
      TEMPO 0118/0120 BKN015
     FM012000 29006KT P6SM SCT030
     FM020200 VRB03KT P6SM SKC
     FM020800 VRB03KT 4SM BR BKN025
     FM021400 08006KT P6SM SCT025=

USA.gov is the U.S. government's official web portal to all federal, state and local government web resources and services.